Time;durP1;ratioP1;P1;durP2;ratioP2;P2;SDS_P1;SDS_P2;PMS_P1;PMS_P2;Temp;Humidity;BMP_temperature;BMP_pressure;BME280_temperature;BME280_humidity;BME280_pressure;Samples;Min_cycle;Max_cycle;Signal;HPM_P1;HPM_P2
2021/05/18 00:02:22;;;;;;;1.97;0.50;;;;;;;8.23;87.93;95818.44;5056066;28;20037;-77
2021/05/18 00:04:48;;;;;;;1.17;0.40;;;;;;;8.22;87.58;95827.28;5061927;28;20544;-78
2021/05/18 00:07:21;;;;;;;2.10;0.73;;;;;;;8.21;87.97;95816.97;5062120;28;20119;-78
2021/05/18 00:12:32;;;;;;;1.53;0.50;;;;;;;8.09;88.55;95820.81;5074532;28;20079;-78
2021/05/18 00:15:06;;;;;;;2.13;0.40;;;;;;;8.11;88.12;95829.34;5063292;28;20478;-77
2021/05/18 00:17:32;;;;;;;1.70;0.83;;;;;;;8.15;88.06;95830.66;5061715;28;20032;-78
2021/05/18 00:19:58;;;;;;;1.40;0.57;;;;;;;8.12;88.24;95831.81;5056702;28;20487;-77
2021/05/18 00:22:23;;;;;;;1.13;0.40;;;;;;;8.15;88.41;95834.13;5066438;28;20032;-78
2021/05/18 00:24:49;;;;;;;1.10;0.50;;;;;;;8.13;89.06;95836.06;5066093;28;20469;-78
2021/05/18 00:27:19;;;;;;;1.83;0.50;;;;;;;8.12;88.32;95844.91;5062603;28;20078;-77
2021/05/18 00:29:45;;;;;;;1.80;0.50;;;;;;;8.19;88.31;95843.31;5069624;28;20119;-78
2021/05/18 00:32:11;;;;;;;2.40;0.60;;;;;;;8.17;88.88;95849.69;5077302;28;20033;-78
2021/05/18 00:34:36;;;;;;;1.53;0.47;;;;;;;8.14;88.25;95848.19;5069387;28;20032;-78
2021/05/18 00:37:02;;;;;;;1.97;0.50;;;;;;;8.10;87.88;95846.84;5055987;28;20036;-78
2021/05/18 00:39:28;;;;;;;2.50;0.43;;;;;;;8.16;88.55;95850.66;5065140;28;20070;-78
2021/05/18 00:41:54;;;;;;;3.30;0.83;;;;;;;8.10;88.84;95846.84;5066523;28;20029;-80
2021/05/18 00:44:19;;;;;;;1.17;0.30;;;;;;;8.05;88.39;95846.50;5061870;28;20591;-78
2021/05/18 00:46:45;;;;;;;1.63;0.50;;;;;;;8.06;88.82;95853.38;5063531;28;20559;-77
2021/05/18 00:49:11;;;;;;;2.90;0.57;;;;;;;8.06;88.96;95842.91;5057333;28;20100;-78
2021/05/18 00:51:44;;;;;;;0.93;0.50;;;;;;;8.11;88.80;95845.03;5066716;28;20032;-78
2021/05/18 00:54:19;;;;;;;1.17;0.50;;;;;;;8.09;88.98;95849.63;5067056;28;20455;-77
2021/05/18 00:59:31;;;;;;;0.90;0.50;;;;;;;8.12;88.51;95850.16;5077034;28;20174;-78
2021/05/18 01:01:57;;;;;;;1.00;0.30;;;;;;;8.09;89.23;95847.84;5055720;28;20039;-78
2021/05/18 01:04:23;;;;;;;0.90;0.30;;;;;;;8.09;89.67;95862.72;5049980;28;20036;-78
2021/05/18 01:06:49;;;;;;;2.13;0.80;;;;;;;8.09;90.18;95867.97;5071537;28;20021;-77
2021/05/18 01:09:15;;;;;;;2.07;0.50;;;;;;;8.07;90.04;95873.34;5066347;28;20047;-78
2021/05/18 01:11:46;;;;;;;3.10;0.60;;;;;;;8.09;89.74;95873.22;5071096;28;20071;-78
2021/05/18 01:14:17;;;;;;;3.87;0.70;;;;;;;8.06;89.65;95883.97;5061746;28;20084;-78
2021/05/18 01:16:50;;;;;;;2.07;0.43;;;;;;;8.04;89.95;95871.03;5061711;28;20028;-81
2021/05/18 01:19:20;;;;;;;1.40;0.50;;;;;;;7.98;90.29;95889.97;5063574;28;20086;-78
2021/05/18 01:21:46;;;;;;;1.03;0.33;;;;;;;7.94;91.00;95880.75;5053400;28;20519;-78
2021/05/18 01:24:16;;;;;;;1.23;0.60;;;;;;;7.92;91.01;95880.13;5082270;28;20028;-77
2021/05/18 01:26:45;;;;;;;2.90;0.53;;;;;;;7.85;91.46;95889.56;5062084;28;20047;-78
2021/05/18 01:29:11;;;;;;;3.20;0.60;;;;;;;7.85;92.34;95897.41;5059104;28;20116;-78
2021/05/18 01:31:43;;;;;;;2.43;0.50;;;;;;;7.83;92.55;95894.09;5055353;28;20021;-78
2021/05/18 01:34:09;;;;;;;2.77;0.50;;;;;;;7.88;92.73;95891.84;5061574;28;20116;-78
2021/05/18 01:36:43;;;;;;;1.90;0.55;;;;;;;7.84;93.28;95896.56;5064085;28;20032;-78
2021/05/18 01:44:23;;;;;;;2.43;0.50;;;;;;;7.74;93.85;95901.88;5075424;28;20039;-78
2021/05/18 01:46:49;;;;;;;5.30;0.60;;;;;;;7.72;94.37;95903.81;5043902;28;20456;-78
2021/05/18 01:49:16;;;;;;;0.73;0.40;;;;;;;7.70;94.36;95894.47;5043896;28;20540;-77
2021/05/18 01:51:49;;;;;;;1.20;0.43;;;;;;;7.69;94.49;95901.50;5065094;28;20025;-77
2021/05/18 01:54:16;;;;;;;1.20;0.43;;;;;;;7.69;94.10;95904.13;5059460;28;20029;-77
2021/05/18 01:56:53;;;;;;;1.47;0.60;;;;;;;7.69;94.81;95901.50;5067193;28;20029;-77
2021/05/18 01:59:23;;;;;;;1.00;0.60;;;;;;;7.65;94.58;95900.16;5054581;28;20371;-77
2021/05/18 02:01:54;;;;;;;3.00;0.60;;;;;;;7.64;94.62;95908.16;5046316;28;20032;-78
2021/05/18 02:04:25;;;;;;;1.30;0.50;;;;;;;7.60;94.96;95905.00;5055451;28;20655;-78
2021/05/18 02:06:54;;;;;;;3.60;0.83;;;;;;;7.54;95.00;95906.44;5059260;28;20097;-78
2021/05/18 02:09:21;;;;;;;3.53;0.60;;;;;;;7.49;95.00;95907.84;5049945;28;20024;-78
2021/05/18 02:11:50;;;;;;;2.13;0.70;;;;;;;7.51;95.32;95903.28;5065720;28;20021;-78
2021/05/18 02:14:26;;;;;;;1.17;0.53;;;;;;;7.45;95.48;95916.97;5058188;28;20029;-78
2021/05/18 02:17:14;;;;;;;1.23;0.60;;;;;;;7.48;95.78;95911.44;5053898;28;20040;-78
2021/05/18 02:25:51;;;;;;;3.13;0.83;;;;;;;7.57;96.30;95915.78;5075760;28;20086;-78
2021/05/18 02:28:53;;;;;;;2.17;0.70;;;;;;;7.59;96.13;95924.31;5052320;28;20033;-78
2021/05/18 02:31:21;;;;;;;1.57;0.70;;;;;;;7.55;95.65;95917.72;5056486;28;20041;-78
2021/05/18 02:33:50;;;;;;;1.83;0.90;;;;;;;7.57;96.07;95921.81;5062726;28;20024;-78
2021/05/18 02:36:21;;;;;;;2.13;1.00;;;;;;;7.59;96.00;95920.88;5051049;28;20029;-78
2021/05/18 02:38:46;;;;;;;2.90;1.00;;;;;;;7.56;95.72;95925.41;5083889;28;20475;-78
2021/05/18 02:41:16;;;;;;;2.27;0.77;;;;;;;7.57;96.09;95921.81;5072971;28;20561;-78
2021/05/18 02:44:00;;;;;;;1.87;0.90;;;;;;;7.53;95.89;95930.94;5073456;28;20029;-78
2021/05/18 02:49:14;;;;;;;1.70;0.80;;;;;;;7.57;96.06;95929.69;5058542;28;20033;-78
2021/05/18 02:51:46;;;;;;;2.53;0.90;;;;;;;7.55;96.43;95922.97;5064669;28;20529;-77
2021/05/18 02:54:15;;;;;;;5.03;0.90;;;;;;;7.52;96.63;95920.66;5067787;28;20028;-78
2021/05/18 02:59:20;;;;;;;3.13;0.80;;;;;;;7.52;95.87;95918.84;5060818;28;20543;-78
2021/05/18 03:01:57;;;;;;;2.13;0.63;;;;;;;7.51;95.63;95926.81;5067973;28;20024;-78
2021/05/18 03:04:25;;;;;;;1.80;0.80;;;;;;;7.52;95.88;95928.50;5062848;28;20044;-78
2021/05/18 03:06:52;;;;;;;1.87;0.77;;;;;;;7.50;94.76;95925.19;5051477;28;20031;-78
2021/05/18 03:09:20;;;;;;;1.83;0.70;;;;;;;7.51;94.90;95929.44;5056268;28;20025;-77
2021/05/18 03:11:48;;;;;;;1.60;0.70;;;;;;;7.49;95.04;95928.78;5052692;28;20114;-78
2021/05/18 03:14:15;;;;;;;7.17;0.83;;;;;;;7.54;95.31;95931.75;5057870;28;20048;-77
2021/05/18 03:16:42;;;;;;;2.77;0.80;;;;;;;7.52;95.55;95933.72;5051153;28;20032;-78
2021/05/18 03:19:10;;;;;;;1.67;0.67;;;;;;;7.54;95.44;95931.75;5051828;28;20559;-77
2021/05/18 03:21:39;;;;;;;1.43;0.63;;;;;;;7.48;96.07;95940.22;5067202;28;20020;-77
2021/05/18 03:24:08;;;;;;;2.40;0.73;;;;;;;7.42;96.01;95944.25;5062191;28;20031;-78
2021/05/18 03:26:35;;;;;;;2.00;0.93;;;;;;;7.44;96.40;95946.69;5062659;28;20017;-78
2021/05/18 03:29:20;;;;;;;5.50;1.10;;;;;;;7.44;97.13;95950.13;5070220;28;20032;-78
2021/05/18 03:34:36;;;;;;;1.97;1.10;;;;;;;7.49;97.64;95949.72;5067784;28;20690;-78
2021/05/18 03:37:12;;;;;;;2.63;0.93;;;;;;;7.49;97.20;95954.94;5077275;28;20331;-78
2021/05/18 03:39:38;;;;;;;3.47;1.20;;;;;;;7.51;97.26;95945.13;5060522;28;20052;-78
2021/05/18 03:44:48;;;;;;;3.53;1.20;;;;;;;7.52;97.13;95944.19;5085182;28;20478;-78
2021/05/18 04:03:51;;;;;;;2.97;1.50;;;;;;;7.57;96.31;95962.88;5057123;28;20136;-79
2021/05/18 04:17:03;;;;;;;3.10;1.33;;;;;;;7.61;96.90;95974.69;5052966;28;20041;-77
2021/05/18 04:19:41;;;;;;;2.03;1.43;;;;;;;7.63;96.46;95978.00;5073789;28;20402;-77
2021/05/18 04:25:42;;;;;;;3.10;1.20;;;;;;;7.66;96.56;95976.88;5075072;28;20035;-77
2021/05/18 04:38:49;;;;;;;2.73;1.50;;;;;;;7.74;96.00;95985.63;5054980;28;20037;-79
2021/05/18 04:51:51;;;;;;;3.90;1.60;;;;;;;7.87;95.73;95995.75;5064831;28;20086;-78
2021/05/18 05:00:01;;;;;;;4.50;1.10;;;;;;;7.78;95.73;96007.94;5074015;28;20118;-78
2021/05/18 05:08:00;;;;;;;2.43;1.20;;;;;;;7.86;95.42;96019.47;5050243;28;20115;-78
2021/05/18 05:15:31;;;;;;;2.70;1.10;;;;;;;7.86;95.09;96016.84;5085621;28;20073;-78
2021/05/18 05:17:57;;;;;;;4.53;2.03;;;;;;;7.89;94.62;96020.00;5087388;28;20599;-78
2021/05/18 05:20:23;;;;;;;2.23;0.80;;;;;;;7.94;94.47;96027.41;5088476;28;20039;-78
2021/05/18 05:22:49;;;;;;;4.07;1.13;;;;;;;7.99;95.10;96028.59;5068271;28;20549;-77
2021/05/18 05:25:14;;;;;;;2.20;0.70;;;;;;;7.93;94.73;96031.81;5052873;28;20017;-77
2021/05/18 05:27:40;;;;;;;2.67;1.03;;;;;;;7.93;94.65;96029.19;5052997;28;20115;-77
2021/05/18 05:30:07;;;;;;;1.47;0.90;;;;;;;7.96;95.09;96023.66;5046074;28;20104;-77
2021/05/18 05:32:33;;;;;;;2.20;0.90;;;;;;;8.04;94.41;96038.63;5058043;28;20424;-77
2021/05/18 05:34:58;;;;;;;4.73;2.23;;;;;;;8.06;94.29;96035.88;5062797;28;20035;-77
2021/05/18 05:37:25;;;;;;;8.20;3.43;;;;;;;8.04;94.66;96033.38;5053598;28;20060;-78
2021/05/18 05:39:51;;;;;;;2.33;0.93;;;;;;;8.07;94.75;96040.94;5061998;28;20009;-77
2021/05/18 05:42:18;;;;;;;2.07;0.77;;;;;;;8.12;93.88;96038.72;5066734;28;20044;-77
2021/05/18 05:44:44;;;;;;;3.67;0.90;;;;;;;8.17;93.66;96044.31;5063714;28;20082;-78
2021/05/18 05:47:09;;;;;;;1.60;0.93;;;;;;;8.23;94.43;96053.41;5064341;28;20486;-78
2021/05/18 05:49:35;;;;;;;1.13;0.77;;;;;;;8.19;94.36;96050.25;5065334;28;20032;-78
2021/05/18 05:52:01;;;;;;;2.23;1.03;;;;;;;8.21;94.22;96050.09;5053892;28;20067;-77
2021/05/18 05:54:26;;;;;;;2.73;1.17;;;;;;;8.29;94.68;96055.41;5059790;28;20032;-78
2021/05/18 05:56:52;;;;;;;2.70;1.00;;;;;;;8.33;94.60;96059.38;5053525;28;20100;-77
2021/05/18 05:59:19;;;;;;;3.77;0.93;;;;;;;8.27;93.73;96065.22;5058100;28;20020;-77
2021/05/18 06:01:47;;;;;;;3.27;1.27;;;;;;;8.17;94.11;96070.53;5060831;28;20094;-77
2021/05/18 06:04:13;;;;;;;2.77;1.27;;;;;;;8.17;94.76;96061.84;5067194;28;20448;-78
2021/05/18 06:06:40;;;;;;;3.30;1.00;;;;;;;8.27;94.13;96062.59;5046188;28;20044;-77
2021/05/18 06:09:06;;;;;;;3.60;1.60;;;;;;;8.51;93.61;96062.03;5067312;28;20051;-78
2021/05/18 06:47:05;;;;;;;2.60;1.10;;;;;;;9.67;88.93;96073.13;5075251;28;20033;-78
2021/05/18 06:49:40;;;;;;;1.53;0.80;;;;;;;9.78;88.71;96072.03;5054596;28;20040;-78
2021/05/18 06:52:06;;;;;;;5.60;1.07;;;;;;;9.73;89.13;96088.25;5059428;28;20477;-77
2021/05/18 06:54:32;;;;;;;3.60;1.50;;;;;;;9.34;88.72;96086.06;5068818;28;20039;-80
2021/05/18 06:57:03;;;;;;;1.67;0.80;;;;;;;9.37;87.92;96084.94;5059245;28;20483;-78
2021/05/18 07:01:59;;;;;;;3.30;1.63;;;;;;;9.33;88.63;96084.44;5056727;28;20569;-78
2021/05/18 07:04:26;;;;;;;5.07;2.40;;;;;;;9.38;88.58;96086.59;5053360;28;20111;-78
2021/05/18 07:07:06;;;;;;;3.70;1.70;;;;;;;9.43;88.86;96084.34;5055129;28;20040;-78
2021/05/18 07:09:32;;;;;;;2.47;1.37;;;;;;;9.23;89.05;96096.03;5067971;28;20043;-78
2021/05/18 07:11:58;;;;;;;4.30;1.30;;;;;;;9.27;89.90;96103.41;5056966;28;20032;-78
2021/05/18 07:14:23;;;;;;;3.00;1.20;;;;;;;9.22;89.72;96097.81;5069653;28;20374;-78
2021/05/18 07:16:49;;;;;;;4.67;1.90;;;;;;;9.20;90.13;96105.84;5053284;28;20025;-78
2021/05/18 07:19:15;;;;;;;2.03;1.00;;;;;;;9.03;90.05;96105.88;5062047;28;20067;-78
2021/05/18 07:21:40;;;;;;;11.13;5.33;;;;;;;8.95;90.19;96111.88;5065508;28;20025;-78
2021/05/18 07:24:10;;;;;;;5.23;2.27;;;;;;;8.99;91.31;96113.25;5072658;28;20029;-77
2021/05/18 07:26:37;;;;;;;4.50;2.00;;;;;;;8.89;91.56;96120.38;5081643;28;20127;-78
2021/05/18 07:29:03;;;;;;;3.83;1.20;;;;;;;8.79;92.40;96127.50;5057728;28;20048;-77
2021/05/18 07:31:29;;;;;;;3.17;1.53;;;;;;;8.77;92.21;96126.81;5053510;28;20068;-78
2021/05/18 07:33:57;;;;;;;4.33;1.20;;;;;;;8.76;92.43;96127.78;5049457;28;20033;-78
2021/05/18 07:36:22;;;;;;;4.07;1.27;;;;;;;8.72;93.49;96129.91;5060695;28;20028;-78
2021/05/18 07:38:50;;;;;;;1.20;0.90;;;;;;;8.86;92.47;96120.66;5069130;28;20504;-77
2021/05/18 07:41:15;;;;;;;2.47;0.73;;;;;;;8.79;92.10;96128.31;5055349;28;20099;-77
2021/05/18 07:43:41;;;;;;;2.43;1.03;;;;;;;8.79;91.78;96130.13;5053668;28;20025;-77
2021/05/18 07:46:13;;;;;;;2.17;0.90;;;;;;;8.64;90.08;96124.56;5055539;28;20398;-78
2021/05/18 07:48:46;;;;;;;6.00;2.50;;;;;;;8.81;90.14;96122.91;5046062;28;20037;-77
2021/05/18 07:51:33;;;;;;;1.20;0.70;;;;;;;8.91;88.87;96121.84;5052259;28;20025;-78
2021/05/18 07:59:41;;;;;;;2.63;0.40;;;;;;;9.64;85.16;96113.66;5067881;28;20083;-78
2021/05/18 08:07:21;;;;;;;1.50;0.73;;;;;;;10.47;83.81;96099.84;5075236;28;20158;-78
2021/05/18 08:09:54;;;;;;;7.33;4.17;;;;;;;11.67;79.99;96094.81;5058270;28;20028;-78
2021/05/18 08:12:19;;;;;;;1.05;0.50;;;;;;;11.61;79.43;96090.25;5061764;28;20486;-78
2021/05/18 08:14:50;;;;;;;2.33;0.90;;;;;;;11.53;77.56;96091.91;5054356;28;20028;-78
2021/05/18 08:17:20;;;;;;;1.87;0.60;;;;;;;11.44;78.67;96092.94;5061191;28;20025;-77
2021/05/18 10:36:42;;;;;;;1.73;1.02;;;;;;;16.24;56.04;96015.22;5069524;28;20025;-79
2021/05/18 10:39:29;;;;;;;2.20;0.50;;;;;;;14.72;60.03;96011.63;5070248;28;20122;-78
2021/05/18 10:41:55;;;;;;;3.95;0.82;;;;;;;15.19;57.53;96011.00;5075241;28;20036;-78
2021/05/18 10:44:22;;;;;;;1.48;0.50;;;;;;;15.33;56.65;96011.91;5064820;28;20028;-78
2021/05/18 10:46:52;;;;;;;4.57;0.75;;;;;;;16.46;54.64;96007.94;5061881;28;20035;-78
2021/05/18 10:49:35;;;;;;;3.42;0.63;;;;;;;16.85;50.94;96019.63;5069564;28;20094;-77
2021/05/18 10:52:04;;;;;;;2.08;0.70;;;;;;;15.56;56.98;96048.75;5081009;28;20046;-78
2021/05/18 10:54:40;;;;;;;1.23;0.40;;;;;;;14.17;58.27;96058.88;5063521;28;20025;-78
2021/05/18 10:57:16;;;;;;;4.63;0.98;;;;;;;13.47;60.54;96069.97;5064250;28;20390;-77
2021/05/18 10:59:44;;;;;;;2.83;0.80;;;;;;;13.30;62.75;96069.31;5058448;28;20044;-78
2021/05/18 11:02:28;;;;;;;3.53;0.60;;;;;;;12.22;65.74;96091.34;5064218;28;20427;-78
2021/05/18 11:05:14;;;;;;;6.20;1.20;;;;;;;10.61;72.70;96091.31;5068568;28;20033;-78
2021/05/18 11:07:42;;;;;;;4.20;1.00;;;;;;;9.29;75.05;96088.34;5061998;28;20598;-78
2021/05/18 11:10:14;;;;;;;2.80;0.40;;;;;;;9.22;77.92;96082.06;5064753;28;20032;-77
2021/05/18 11:12:43;;;;;;;5.60;1.70;;;;;;;10.02;82.91;96071.28;5064418;28;20036;-78
2021/05/18 11:15:11;;;;;;;5.73;1.50;;;;;;;9.75;78.33;96059.19;5040993;28;20028;-78
2021/05/18 11:17:43;;;;;;;3.73;1.00;;;;;;;10.25;78.79;96074.13;5057266;28;20032;-78
2021/05/18 11:23:32;;;;;;;3.63;1.20;;;;;;;10.11;79.47;96072.97;5064489;28;20037;-78
2021/05/18 11:26:04;;;;;;;11.48;7.40;;;;;;;10.44;79.57;96070.44;5068764;28;20067;-77
2021/05/18 11:28:38;;;;;;;2.80;0.90;;;;;;;10.41;80.14;96079.47;5059746;28;20032;-78
2021/05/18 11:31:12;;;;;;;1.03;0.60;;;;;;;10.03;77.01;96076.38;5056156;28;20116;-77
2021/05/18 11:33:46;;;;;;;3.67;0.60;;;;;;;10.04;79.38;96067.50;5061155;28;20040;-78
2021/05/18 11:36:19;;;;;;;1.53;0.43;;;;;;;10.02;77.68;96074.72;5058804;28;20028;-78
2021/05/18 11:39:11;;;;;;;1.17;0.35;;;;;;;9.80;78.94;96057.75;5062424;28;20037;-78
2021/05/18 11:41:40;;;;;;;2.00;0.60;;;;;;;9.57;78.28;96054.06;5067059;28;20048;-78
2021/05/18 11:44:10;;;;;;;1.67;0.50;;;;;;;9.77;77.39;96044.13;5064344;28;20017;-78
2021/05/18 11:46:51;;;;;;;1.30;0.53;;;;;;;9.99;76.79;96042.69;5052174;28;20032;-78
2021/05/18 11:49:19;;;;;;;1.13;0.60;;;;;;;10.29;78.55;96041.31;5052898;28;20084;-78
2021/05/18 11:51:44;;;;;;;3.90;1.10;;;;;;;10.62;76.62;96039.53;5061413;28;20542;-78
2021/05/18 11:54:12;;;;;;;2.60;0.70;;;;;;;10.79;76.54;96035.09;5065538;28;20035;-78
2021/05/18 11:56:39;;;;;;;1.67;0.50;;;;;;;11.12;74.02;96027.16;5069092;28;20077;-78
2021/05/18 11:59:17;;;;;;;0.63;0.37;;;;;;;11.73;73.63;96023.84;5070625;28;20043;-77
2021/05/18 12:01:43;;;;;;;1.43;0.60;;;;;;;12.71;71.43;96014.56;5063120;28;20056;-77
2021/05/18 12:04:11;;;;;;;0.50;0.40;;;;;;;13.75;66.68;96009.34;5067045;28;20048;-78
2021/05/18 12:06:41;;;;;;;1.30;0.40;;;;;;;13.62;66.39;96005.56;5062402;28;20100;-78
2021/05/18 12:09:10;;;;;;;1.60;0.50;;;;;;;13.74;63.99;95997.97;5063191;28;20572;-78
2021/05/18 12:11:36;;;;;;;1.60;0.50;;;;;;;14.73;63.38;95992.13;5066109;28;20032;-78
2021/05/18 12:14:07;;;;;;;1.33;0.70;;;;;;;14.83;62.97;95988.13;5065598;28;20095;-78
2021/05/18 12:16:40;;;;;;;2.17;0.70;;;;;;;14.76;60.00;95989.91;5055743;28;20052;-78
2021/05/18 12:19:09;;;;;;;0.60;0.45;;;;;;;15.02;62.78;95986.66;5053282;28;20036;-78
2021/05/18 12:21:36;;;;;;;3.17;1.27;;;;;;;15.22;61.92;95986.75;5063074;28;20094;-78
2021/05/18 12:24:02;;;;;;;3.77;1.70;;;;;;;15.81;60.82;95980.16;5069939;28;21214;-78
2021/05/18 12:26:28;;;;;;;4.00;1.00;;;;;;;16.14;61.70;95980.28;5067809;28;20086;-78
2021/05/18 12:28:54;;;;;;;3.67;0.60;;;;;;;16.20;58.85;95979.47;5059883;28;20068;-78
2021/05/18 12:31:35;;;;;;;3.22;0.50;;;;;;;16.12;58.79;95973.53;5067490;28;20024;-78
2021/05/18 12:34:03;;;;;;;2.78;0.80;;;;;;;16.60;56.95;95984.03;5068785;28;20109;-78
2021/05/18 12:36:30;;;;;;;3.05;0.82;;;;;;;15.01;59.51;95981.53;5069241;28;20031;-78
2021/05/18 12:39:16;;;;;;;2.65;0.90;;;;;;;15.99;58.87;95969.81;5062741;28;20040;-78
2021/05/18 12:41:52;;;;;;;1.95;0.68;;;;;;;15.54;57.02;95963.31;5072444;28;20040;-78
2021/05/18 12:44:20;;;;;;;3.03;0.73;;;;;;;16.59;58.36;95956.66;5072912;28;20489;-78
2021/05/18 12:47:00;;;;;;;1.83;0.90;;;;;;;17.37;57.04;95953.34;5062840;28;20090;-78
2021/05/18 12:49:37;;;;;;;2.03;0.80;;;;;;;16.95;55.10;95958.13;5073705;28;20129;-78
2021/05/18 12:52:12;;;;;;;2.15;0.80;;;;;;;15.74;56.71;95958.13;5069412;28;20036;-78
2021/05/18 12:54:58;;;;;;;1.67;0.68;;;;;;;16.38;55.77;95949.72;5070566;28;20036;-80
2021/05/18 12:57:26;;;;;;;4.88;0.85;;;;;;;17.45;52.94;95931.88;5044265;28;20063;-78
2021/05/18 13:00:27;;;;;;;2.42;0.60;;;;;;;16.85;55.06;95941.78;5058366;28;20226;-78
2021/05/18 13:02:53;;;;;;;2.42;0.50;;;;;;;15.21;58.46;95953.34;5031821;28;20082;-78
2021/05/18 13:05:30;;;;;;;2.35;0.95;;;;;;;14.78;60.93;95947.34;5064577;28;20025;-78
2021/05/18 13:08:12;;;;;;;4.28;0.95;;;;;;;14.49;60.98;95958.91;5061934;28;20131;-78
2021/05/18 13:13:56;;;;;;;3.90;1.10;;;;;;;13.95;62.47;95954.06;5082607;28;20051;-78
2021/05/18 13:16:25;;;;;;;2.60;0.80;;;;;;;13.66;63.16;95958.44;5042521;28;20039;-78
2021/05/18 13:19:09;;;;;;;3.53;0.90;;;;;;;13.14;63.99;95956.72;5061770;28;20557;-78
2021/05/18 13:21:59;;;;;;;3.77;1.30;;;;;;;12.38;68.35;95972.59;5062002;28;20033;-79
2021/05/18 13:27:19;;;;;;;3.83;0.90;;;;;;;12.73;70.18;95978.22;5015342;28;20042;-78
2021/05/18 13:29:45;;;;;;;1.87;0.60;;;;;;;13.22;66.47;95988.31;5061493;28;20020;-78
2021/05/18 13:32:11;;;;;;;2.03;0.60;;;;;;;13.80;65.36;95985.84;5065313;28;20112;-78
2021/05/18 13:34:38;;;;;;;2.40;0.93;;;;;;;14.77;63.61;95978.28;5062069;28;20460;-79
2021/05/18 13:37:04;;;;;;;2.77;0.83;;;;;;;15.53;62.59;95961.66;5069472;28;20040;-78
2021/05/18 13:39:30;;;;;;;3.33;1.00;;;;;;;15.79;58.72;95971.59;5069245;28;20021;-78
2021/05/18 13:41:55;;;;;;;3.13;0.90;;;;;;;16.23;56.71;95963.16;5063480;28;20033;-78
2021/05/18 13:44:22;;;;;;;4.20;1.80;;;;;;;16.11;56.86;95962.09;5064520;28;20017;-79
2021/05/18 13:46:48;;;;;;;5.35;2.13;;;;;;;15.35;57.71;95969.31;5066216;28;20524;-79
2021/05/18 13:49:15;;;;;;;5.63;2.30;;;;;;;15.77;56.78;95968.31;5049557;28;20025;-78
2021/05/18 13:51:42;;;;;;;0.83;0.30;;;;;;;14.79;58.51;95949.81;5062515;28;20032;-78
2021/05/18 13:54:08;;;;;;;1.38;0.47;;;;;;;16.07;56.44;95952.94;5064823;28;20466;-78
2021/05/18 13:56:34;;;;;;;1.45;0.43;;;;;;;16.41;53.75;95959.09;5069107;28;20044;-79
2021/05/18 13:58:59;;;;;;;1.55;0.50;;;;;;;16.08;53.53;95943.94;5060173;28;20055;-79
2021/05/18 14:01:26;;;;;;;3.10;0.70;;;;;;;15.81;52.09;95935.09;5061312;28;20131;-78
2021/05/18 14:03:53;;;;;;;1.15;0.60;;;;;;;15.63;53.04;95934.81;5069514;28;20036;-78
2021/05/18 14:06:19;;;;;;;3.40;1.17;;;;;;;16.76;53.65;95940.34;5064396;28;20123;-79
2021/05/18 14:08:45;;;;;;;2.25;0.50;;;;;;;15.88;47.71;95911.25;5071736;28;20036;-78
2021/05/18 14:11:11;;;;;;;2.72;1.30;;;;;;;16.29;52.12;95928.88;5063136;28;20090;-77
2021/05/18 14:13:40;;;;;;;1.48;0.40;;;;;;;16.32;47.52;95916.00;5066671;28;20025;-78
2021/05/18 14:16:09;;;;;;;1.35;0.30;;;;;;;15.99;48.55;95906.16;5062874;28;20040;-79
2021/05/18 14:18:36;;;;;;;2.72;0.65;;;;;;;16.14;47.82;95906.00;5063149;28;20055;-78
2021/05/18 14:21:03;;;;;;;3.22;1.00;;;;;;;15.97;47.83;95900.25;5049612;28;20502;-79
2021/05/18 14:26:04;;;;;;;2.80;0.80;;;;;;;15.89;48.46;95902.25;5086231;28;20020;-79
2021/05/18 14:28:30;;;;;;;6.35;3.42;;;;;;;15.96;49.41;95900.44;5070687;28;20028;-79
2021/05/18 14:30:58;;;;;;;4.85;0.88;;;;;;;15.69;49.76;95895.09;5062379;28;20070;-79
2021/05/18 14:33:24;;;;;;;2.95;0.88;;;;;;;15.68;50.88;95905.88;5059407;28;20033;-78
2021/05/18 14:35:50;;;;;;;1.58;0.32;;;;;;;15.26;50.63;95902.44;5063241;28;20054;-79
2021/05/18 14:38:19;;;;;;;2.85;0.68;;;;;;;14.88;50.63;95899.34;5066978;28;20098;-78
2021/05/18 14:42:46;;;;;;;2.95;0.40;;;;;;;14.97;50.17;95893.72;5068617;28;20040;-79
2021/05/18 14:46:25;;;;;;;3.77;0.57;;;;;;;15.64;50.24;95900.13;5084759;28;20027;-78
2021/05/18 14:57:13;;;;;;;3.30;0.93;;;;;;;15.11;49.74;95907.03;5065700;28;20094;-81
2021/05/18 14:59:39;;;;;;;3.33;0.95;;;;;;;14.55;50.77;95913.16;5071660;28;20037;-78
2021/05/18 15:02:05;;;;;;;2.13;0.77;;;;;;;14.41;51.69;95929.91;5066094;28;20032;-79
2021/05/18 15:04:31;;;;;;;3.22;0.68;;;;;;;14.67;50.86;95914.28;5072830;28;20024;-79
2021/05/18 15:06:58;;;;;;;2.85;1.00;;;;;;;14.50;54.25;95921.69;5060395;28;20033;-78
2021/05/18 15:09:24;;;;;;;2.43;0.77;;;;;;;14.57;58.08;95929.69;5065728;28;20090;-79
2021/05/18 15:11:50;;;;;;;2.58;0.60;;;;;;;14.21;60.71;95925.25;5070938;28;20066;-79
2021/05/18 15:14:16;;;;;;;7.43;0.80;;;;;;;13.18;67.45;95945.63;5065147;28;20036;-79
2021/05/18 15:16:41;;;;;;;2.93;0.70;;;;;;;12.96;68.67;95949.16;5071070;28;20036;-79
2021/05/18 15:19:10;;;;;;;2.53;0.60;;;;;;;12.56;70.91;95956.44;5062688;28;20085;-79
2021/05/18 15:21:36;;;;;;;3.53;0.63;;;;;;;12.41;70.10;95958.25;5060154;28;20036;-78
2021/05/18 15:24:02;;;;;;;3.57;1.07;;;;;;;12.10;71.06;95960.94;5067018;28;20614;-78
2021/05/18 15:26:27;;;;;;;2.53;0.70;;;;;;;12.10;74.04;95959.09;5067371;28;20037;-79
2021/05/18 15:28:53;;;;;;;4.67;1.00;;;;;;;11.98;74.24;95963.97;5063410;28;20084;-78
2021/05/18 15:31:19;;;;;;;3.90;0.87;;;;;;;11.97;74.27;95975.53;5069096;28;20025;-79
2021/05/18 15:33:44;;;;;;;3.07;0.63;;;;;;;11.16;75.28;95989.81;5086682;28;20041;-79
2021/05/18 15:36:12;;;;;;;2.90;0.70;;;;;;;10.60;73.53;95995.00;5066002;28;20395;-79
2021/05/18 15:38:38;;;;;;;2.57;0.73;;;;;;;10.11;77.95;96002.81;5049363;28;20060;-79
2021/05/18 15:41:08;;;;;;;2.47;0.70;;;;;;;9.84;77.43;96003.09;5069474;28;20044;-80
2021/05/18 15:43:34;;;;;;;0.93;0.33;;;;;;;9.35;78.88;96014.22;5072479;28;20111;-79
2021/05/18 15:46:01;;;;;;;1.87;0.50;;;;;;;9.23;79.09;96023.38;5067391;28;20020;-79
2021/05/18 15:48:27;;;;;;;1.13;0.37;;;;;;;9.35;82.09;96029.16;5070586;28;20118;-78
2021/05/18 15:50:53;;;;;;;5.23;1.57;;;;;;;9.14;83.45;96022.50;5073279;28;20029;-80
2021/05/18 15:53:19;;;;;;;7.43;4.03;;;;;;;9.14;83.94;96032.16;5071083;28;20041;-77
2021/05/18 15:55:44;;;;;;;3.43;1.10;;;;;;;9.24;84.19;96027.63;5065089;28;20032;-77
2021/05/18 15:58:11;;;;;;;2.53;1.10;;;;;;;9.43;82.04;96016.09;5062196;28;20032;-77
2021/05/18 16:00:37;;;;;;;2.83;1.00;;;;;;;9.44;81.78;96012.47;5074143;28;20462;-78
2021/05/18 16:03:04;;;;;;;2.37;1.00;;;;;;;9.99;80.95;95998.84;5067787;28;20032;-80
2021/05/18 16:05:29;;;;;;;0.67;0.40;;;;;;;10.26;79.79;95976.78;5068809;28;20044;-77
2021/05/18 16:08:05;;;;;;;1.70;0.60;;;;;;;10.57;78.98;95979.56;5064942;28;20060;-78
2021/05/18 16:10:31;;;;;;;1.03;0.60;;;;;;;10.89;78.00;95962.09;5071259;28;20044;-79
2021/05/18 16:12:57;;;;;;;4.13;1.40;;;;;;;10.91;76.46;95962.75;5070251;28;20120;-79
2021/05/18 16:15:23;;;;;;;4.27;1.90;;;;;;;11.12;73.58;95964.00;5068237;28;20025;-78
2021/05/18 16:17:49;;;;;;;4.40;1.77;;;;;;;11.32;73.65;95960.81;5069560;28;20060;-78
2021/05/18 16:20:14;;;;;;;14.40;9.50;;;;;;;11.34;72.76;95955.38;5073953;28;20047;-79
2021/05/18 16:22:41;;;;;;;2.73;1.30;;;;;;;11.58;72.58;95962.34;5068205;28;20028;-78
2021/05/18 16:25:08;;;;;;;2.53;0.50;;;;;;;11.77;73.59;95956.66;5064537;28;20079;-79
2021/05/18 16:27:34;;;;;;;1.17;0.53;;;;;;;11.83;72.92;95959.59;5067390;28;20029;-78
2021/05/18 16:30:00;;;;;;;0.70;0.40;;;;;;;11.85;72.71;95953.19;5067904;28;20573;-78
2021/05/18 16:32:25;;;;;;;1.27;0.60;;;;;;;11.67;73.76;95957.84;5066597;28;20116;-79
2021/05/18 16:34:51;;;;;;;2.10;0.50;;;;;;;11.76;70.93;95954.19;5068217;28;20072;-78
2021/05/18 16:37:17;;;;;;;11.63;7.00;;;;;;;11.82;73.02;95965.84;5069159;28;20067;-79
2021/05/18 16:39:42;;;;;;;4.93;2.63;;;;;;;11.61;71.17;95956.75;5069456;28;20082;-78
2021/05/18 16:42:08;;;;;;;1.00;0.40;;;;;;;11.65;71.85;95957.22;5046813;28;20033;-78
2021/05/18 16:44:34;;;;;;;0.83;0.40;;;;;;;11.64;74.77;95959.03;5074304;28;20040;-79
2021/05/18 16:47:00;;;;;;;0.60;0.40;;;;;;;11.66;75.81;95959.66;5084914;28;20626;-79
2021/05/18 16:49:25;;;;;;;1.47;0.47;;;;;;;11.50;73.18;95955.31;5062774;28;20063;-77
2021/05/18 16:51:51;;;;;;;2.43;1.30;;;;;;;11.59;73.60;95950.81;5063454;28;20520;-78
2021/05/18 16:54:18;;;;;;;2.57;0.70;;;;;;;11.55;74.62;95958.25;5066848;28;20503;-77